sensor_id;sensor_type;location;lat;lon;timestamp;P1;durP1;ratioP1;P2;durP2;ratioP2
49826;SDS011;35715;51.570;6.036;2023-08-01T00:01:49;6.30;;;3.70;;
49826;SDS011;35715;51.570;6.036;2023-08-01T00:04:15;3.88;;;3.53;;
49826;SDS011;35715;51.570;6.036;2023-08-01T00:06:41;4.75;;;3.47;;
49826;SDS011;35715;51.570;6.036;2023-08-01T00:09:06;4.20;;;3.80;;
49826;SDS011;35715;51.570;6.036;2023-08-01T00:11:32;3.30;;;3.00;;
49826;SDS011;35715;51.570;6.036;2023-08-01T00:13:57;3.42;;;3.15;;
49826;SDS011;35715;51.570;6.036;2023-08-01T00:16:23;4.60;;;3.28;;
49826;SDS011;35715;51.570;6.036;2023-08-01T00:18:48;3.80;;;3.40;;
49826;SDS011;35715;51.570;6.036;2023-08-01T00:21:14;5.20;;;3.85;;
49826;SDS011;35715;51.570;6.036;2023-08-01T00:23:40;4.10;;;3.80;;
49826;SDS011;35715;51.570;6.036;2023-08-01T00:26:05;4.03;;;3.72;;
49826;SDS011;35715;51.570;6.036;2023-08-01T00:28:31;3.92;;;3.42;;
49826;SDS011;35715;51.570;6.036;2023-08-01T00:31:03;4.97;;;3.55;;
49826;SDS011;35715;51.570;6.036;2023-08-01T00:33:30;4.05;;;3.75;;
49826;SDS011;35715;51.570;6.036;2023-08-01T00:35:55;5.82;;;3.83;;
49826;SDS011;35715;51.570;6.036;2023-08-01T00:38:20;3.25;;;2.95;;
49826;SDS011;35715;51.570;6.036;2023-08-01T00:40:46;4.32;;;3.92;;
49826;SDS011;35715;51.570;6.036;2023-08-01T00:43:12;9.68;;;4.68;;
49826;SDS011;35715;51.570;6.036;2023-08-01T00:45:37;7.57;;;5.07;;
49826;SDS011;35715;51.570;6.036;2023-08-01T00:48:03;6.88;;;5.38;;
49826;SDS011;35715;51.570;6.036;2023-08-01T00:50:29;6.22;;;5.07;;
49826;SDS011;35715;51.570;6.036;2023-08-01T00:52:54;5.97;;;4.80;;
49826;SDS011;35715;51.570;6.036;2023-08-01T00:55:21;6.63;;;5.53;;
49826;SDS011;35715;51.570;6.036;2023-08-01T00:57:47;7.05;;;6.38;;
49826;SDS011;35715;51.570;6.036;2023-08-01T01:00:13;8.48;;;7.03;;
49826;SDS011;35715;51.570;6.036;2023-08-01T01:02:38;8.93;;;6.53;;
49826;SDS011;35715;51.570;6.036;2023-08-01T01:05:04;7.80;;;7.07;;
49826;SDS011;35715;51.570;6.036;2023-08-01T01:07:30;6.97;;;6.28;;
49826;SDS011;35715;51.570;6.036;2023-08-01T01:09:57;11.90;;;7.40;;
49826;SDS011;35715;51.570;6.036;2023-08-01T01:12:23;6.63;;;5.97;;
49826;SDS011;35715;51.570;6.036;2023-08-01T01:14:48;8.02;;;7.22;;
49826;SDS011;35715;51.570;6.036;2023-08-01T01:17:14;7.65;;;6.90;;
49826;SDS011;35715;51.570;6.036;2023-08-01T01:19:39;10.00;;;8.10;;
49826;SDS011;35715;51.570;6.036;2023-08-01T01:22:05;9.43;;;8.52;;
49826;SDS011;35715;51.570;6.036;2023-08-01T01:24:33;8.02;;;7.32;;
49826;SDS011;35715;51.570;6.036;2023-08-01T01:27:00;9.10;;;8.27;;
49826;SDS011;35715;51.570;6.036;2023-08-01T01:29:28;15.93;;;9.43;;
49826;SDS011;35715;51.570;6.036;2023-08-01T01:31:55;9.25;;;8.20;;
49826;SDS011;35715;51.570;6.036;2023-08-01T01:34:21;11.68;;;10.27;;
49826;SDS011;35715;51.570;6.036;2023-08-01T01:36:47;9.50;;;8.60;;
49826;SDS011;35715;51.570;6.036;2023-08-01T01:39:12;12.75;;;10.25;;
49826;SDS011;35715;51.570;6.036;2023-08-01T01:41:37;13.80;;;8.48;;
49826;SDS011;35715;51.570;6.036;2023-08-01T01:44:03;12.85;;;11.45;;
49826;SDS011;35715;51.570;6.036;2023-08-01T01:46:28;10.35;;;9.38;;
49826;SDS011;35715;51.570;6.036;2023-08-01T01:48:54;14.40;;;9.68;;
49826;SDS011;35715;51.570;6.036;2023-08-01T01:51:20;11.38;;;9.52;;
49826;SDS011;35715;51.570;6.036;2023-08-01T01:53:46;14.55;;;10.93;;
49826;SDS011;35715;51.570;6.036;2023-08-01T01:56:12;14.10;;;10.50;;
49826;SDS011;35715;51.570;6.036;2023-08-01T01:58:37;16.55;;;9.80;;
49826;SDS011;35715;51.570;6.036;2023-08-01T02:01:03;16.13;;;10.45;;
49826;SDS011;35715;51.570;6.036;2023-08-01T02:03:28;12.05;;;9.82;;
49826;SDS011;35715;51.570;6.036;2023-08-01T02:05:53;15.68;;;10.07;;
49826;SDS011;35715;51.570;6.036;2023-08-01T02:08:19;14.43;;;10.05;;
49826;SDS011;35715;51.570;6.036;2023-08-01T02:10:44;14.68;;;12.00;;
49826;SDS011;35715;51.570;6.036;2023-08-01T02:13:09;12.63;;;9.48;;
49826;SDS011;35715;51.570;6.036;2023-08-01T02:15:35;11.65;;;10.40;;
49826;SDS011;35715;51.570;6.036;2023-08-01T02:18:00;12.65;;;11.10;;
49826;SDS011;35715;51.570;6.036;2023-08-01T02:20:26;14.50;;;11.00;;
49826;SDS011;35715;51.570;6.036;2023-08-01T02:22:52;11.40;;;9.32;;
49826;SDS011;35715;51.570;6.036;2023-08-01T02:25:17;12.65;;;10.48;;
49826;SDS011;35715;51.570;6.036;2023-08-01T02:27:42;18.27;;;10.13;;
49826;SDS011;35715;51.570;6.036;2023-08-01T02:30:08;14.75;;;10.15;;
49826;SDS011;35715;51.570;6.036;2023-08-01T02:32:34;16.10;;;9.70;;
49826;SDS011;35715;51.570;6.036;2023-08-01T02:34:59;16.33;;;11.02;;
49826;SDS011;35715;51.570;6.036;2023-08-01T02:37:24;14.00;;;10.68;;
49826;SDS011;35715;51.570;6.036;2023-08-01T02:39:50;12.48;;;9.93;;
49826;SDS011;35715;51.570;6.036;2023-08-01T02:42:15;16.63;;;10.57;;
49826;SDS011;35715;51.570;6.036;2023-08-01T02:44:40;11.10;;;9.95;;
49826;SDS011;35715;51.570;6.036;2023-08-01T02:47:06;15.45;;;9.55;;
49826;SDS011;35715;51.570;6.036;2023-08-01T02:49:31;15.05;;;8.63;;
49826;SDS011;35715;51.570;6.036;2023-08-01T02:51:57;15.18;;;10.38;;
49826;SDS011;35715;51.570;6.036;2023-08-01T02:54:24;11.07;;;9.73;;
49826;SDS011;35715;51.570;6.036;2023-08-01T02:56:52;14.93;;;10.65;;
49826;SDS011;35715;51.570;6.036;2023-08-01T02:59:17;10.77;;;8.43;;
49826;SDS011;35715;51.570;6.036;2023-08-01T03:01:43;12.65;;;9.70;;
49826;SDS011;35715;51.570;6.036;2023-08-01T03:04:09;17.83;;;9.80;;
49826;SDS011;35715;51.570;6.036;2023-08-01T03:06:36;26.45;;;11.23;;
49826;SDS011;35715;51.570;6.036;2023-08-01T03:09:02;14.00;;;10.98;;
49826;SDS011;35715;51.570;6.036;2023-08-01T03:11:27;11.02;;;9.90;;
49826;SDS011;35715;51.570;6.036;2023-08-01T03:13:53;16.58;;;10.95;;
49826;SDS011;35715;51.570;6.036;2023-08-01T03:16:18;22.45;;;11.13;;
49826;SDS011;35715;51.570;6.036;2023-08-01T03:18:43;16.23;;;11.13;;
49826;SDS011;35715;51.570;6.036;2023-08-01T03:21:09;16.77;;;10.75;;
49826;SDS011;35715;51.570;6.036;2023-08-01T03:23:35;22.05;;;13.10;;
49826;SDS011;35715;51.570;6.036;2023-08-01T03:26:00;17.45;;;11.65;;
49826;SDS011;35715;51.570;6.036;2023-08-01T03:28:26;16.52;;;10.43;;
49826;SDS011;35715;51.570;6.036;2023-08-01T03:30:51;19.05;;;10.43;;
49826;SDS011;35715;51.570;6.036;2023-08-01T03:33:18;16.75;;;12.85;;
49826;SDS011;35715;51.570;6.036;2023-08-01T03:35:44;13.93;;;11.10;;
49826;SDS011;35715;51.570;6.036;2023-08-01T03:38:10;23.30;;;12.10;;
49826;SDS011;35715;51.570;6.036;2023-08-01T03:40:35;18.55;;;12.15;;
49826;SDS011;35715;51.570;6.036;2023-08-01T03:43:01;21.30;;;12.18;;
49826;SDS011;35715;51.570;6.036;2023-08-01T03:45:26;20.55;;;13.65;;
49826;SDS011;35715;51.570;6.036;2023-08-01T03:47:51;14.93;;;12.63;;
49826;SDS011;35715;51.570;6.036;2023-08-01T03:50:17;24.92;;;13.20;;
49826;SDS011;35715;51.570;6.036;2023-08-01T03:52:42;21.40;;;14.00;;
49826;SDS011;35715;51.570;6.036;2023-08-01T03:55:08;23.48;;;15.73;;
49826;SDS011;35715;51.570;6.036;2023-08-01T03:57:33;18.08;;;14.43;;
49826;SDS011;35715;51.570;6.036;2023-08-01T03:59:59;20.92;;;13.15;;
49826;SDS011;35715;51.570;6.036;2023-08-01T04:02:25;18.80;;;14.77;;
49826;SDS011;35715;51.570;6.036;2023-08-01T04:04:50;19.05;;;13.43;;
49826;SDS011;35715;51.570;6.036;2023-08-01T04:07:16;19.27;;;14.05;;
49826;SDS011;35715;51.570;6.036;2023-08-01T04:09:41;23.67;;;15.27;;
49826;SDS011;35715;51.570;6.036;2023-08-01T04:12:07;22.45;;;14.63;;
49826;SDS011;35715;51.570;6.036;2023-08-01T04:14:33;32.90;;;15.55;;
49826;SDS011;35715;51.570;6.036;2023-08-01T04:16:59;25.98;;;17.15;;
49826;SDS011;35715;51.570;6.036;2023-08-01T04:19:24;20.90;;;15.02;;
49826;SDS011;35715;51.570;6.036;2023-08-01T04:21:50;24.55;;;16.60;;
49826;SDS011;35715;51.570;6.036;2023-08-01T04:24:15;19.15;;;15.73;;
49826;SDS011;35715;51.570;6.036;2023-08-01T04:26:41;24.67;;;17.83;;
49826;SDS011;35715;51.570;6.036;2023-08-01T04:29:06;21.50;;;16.30;;
49826;SDS011;35715;51.570;6.036;2023-08-01T04:31:31;23.77;;;17.73;;
49826;SDS011;35715;51.570;6.036;2023-08-01T04:33:57;24.85;;;19.42;;
49826;SDS011;35715;51.570;6.036;2023-08-01T04:36:22;34.03;;;20.40;;
49826;SDS011;35715;51.570;6.036;2023-08-01T04:38:48;25.67;;;18.60;;
49826;SDS011;35715;51.570;6.036;2023-08-01T04:41:13;27.23;;;19.23;;
49826;SDS011;35715;51.570;6.036;2023-08-01T04:43:39;22.05;;;18.88;;
49826;SDS011;35715;51.570;6.036;2023-08-01T04:46:04;26.88;;;20.45;;
49826;SDS011;35715;51.570;6.036;2023-08-01T04:48:29;24.80;;;18.02;;
49826;SDS011;35715;51.570;6.036;2023-08-01T04:50:55;27.20;;;19.65;;
49826;SDS011;35715;51.570;6.036;2023-08-01T04:53:20;24.77;;;18.75;;
49826;SDS011;35715;51.570;6.036;2023-08-01T04:55:45;24.40;;;19.00;;
49826;SDS011;35715;51.570;6.036;2023-08-01T04:58:11;26.45;;;19.95;;
49826;SDS011;35715;51.570;6.036;2023-08-01T05:00:37;23.73;;;17.25;;
49826;SDS011;35715;51.570;6.036;2023-08-01T05:03:03;26.75;;;19.42;;
49826;SDS011;35715;51.570;6.036;2023-08-01T05:05:28;21.67;;;17.92;;
49826;SDS011;35715;51.570;6.036;2023-08-01T05:07:53;26.42;;;21.33;;
49826;SDS011;35715;51.570;6.036;2023-08-01T05:10:19;23.02;;;20.60;;
49826;SDS011;35715;51.570;6.036;2023-08-01T05:12:44;23.17;;;19.33;;
49826;SDS011;35715;51.570;6.036;2023-08-01T05:15:10;30.67;;;20.77;;
49826;SDS011;35715;51.570;6.036;2023-08-01T05:17:35;25.60;;;20.73;;
49826;SDS011;35715;51.570;6.036;2023-08-01T05:20:01;27.40;;;20.30;;
49826;SDS011;35715;51.570;6.036;2023-08-01T05:22:28;29.25;;;23.52;;
49826;SDS011;35715;51.570;6.036;2023-08-01T05:24:53;31.13;;;21.67;;
49826;SDS011;35715;51.570;6.036;2023-08-01T05:27:18;27.45;;;21.30;;
49826;SDS011;35715;51.570;6.036;2023-08-01T05:29:44;33.22;;;23.10;;
49826;SDS011;35715;51.570;6.036;2023-08-01T05:32:09;37.08;;;21.35;;
49826;SDS011;35715;51.570;6.036;2023-08-01T05:34:34;27.38;;;22.40;;
49826;SDS011;35715;51.570;6.036;2023-08-01T05:37:00;31.35;;;20.80;;
49826;SDS011;35715;51.570;6.036;2023-08-01T05:39:25;26.90;;;20.80;;
49826;SDS011;35715;51.570;6.036;2023-08-01T05:41:51;27.67;;;23.20;;
49826;SDS011;35715;51.570;6.036;2023-08-01T05:44:16;36.65;;;21.98;;
49826;SDS011;35715;51.570;6.036;2023-08-01T05:46:41;29.73;;;23.23;;
49826;SDS011;35715;51.570;6.036;2023-08-01T05:49:07;27.65;;;19.58;;
49826;SDS011;35715;51.570;6.036;2023-08-01T05:51:32;25.63;;;19.17;;
49826;SDS011;35715;51.570;6.036;2023-08-01T05:53:57;23.88;;;19.38;;
49826;SDS011;35715;51.570;6.036;2023-08-01T05:56:23;32.22;;;21.35;;
49826;SDS011;35715;51.570;6.036;2023-08-01T05:58:48;32.58;;;20.90;;
49826;SDS011;35715;51.570;6.036;2023-08-01T06:01:15;28.23;;;20.63;;
49826;SDS011;35715;51.570;6.036;2023-08-01T06:03:41;27.50;;;18.90;;
49826;SDS011;35715;51.570;6.036;2023-08-01T06:06:07;26.35;;;20.00;;
49826;SDS011;35715;51.570;6.036;2023-08-01T06:08:33;21.77;;;17.10;;
49826;SDS011;35715;51.570;6.036;2023-08-01T06:10:58;28.17;;;18.40;;
49826;SDS011;35715;51.570;6.036;2023-08-01T06:13:24;33.28;;;19.58;;
49826;SDS011;35715;51.570;6.036;2023-08-01T06:15:49;27.92;;;18.75;;
49826;SDS011;35715;51.570;6.036;2023-08-01T06:18:14;29.20;;;19.90;;
49826;SDS011;35715;51.570;6.036;2023-08-01T06:20:43;26.27;;;19.10;;
49826;SDS011;35715;51.570;6.036;2023-08-01T06:23:08;23.15;;;17.50;;
49826;SDS011;35715;51.570;6.036;2023-08-01T06:25:34;28.45;;;21.75;;
49826;SDS011;35715;51.570;6.036;2023-08-01T06:27:59;21.80;;;19.67;;
49826;SDS011;35715;51.570;6.036;2023-08-01T06:30:25;20.23;;;17.55;;
49826;SDS011;35715;51.570;6.036;2023-08-01T06:32:50;22.10;;;17.50;;
49826;SDS011;35715;51.570;6.036;2023-08-01T06:35:16;27.20;;;16.65;;
49826;SDS011;35715;51.570;6.036;2023-08-01T06:37:41;20.52;;;16.02;;
49826;SDS011;35715;51.570;6.036;2023-08-01T06:40:07;24.10;;;15.90;;
49826;SDS011;35715;51.570;6.036;2023-08-01T06:42:33;16.27;;;14.73;;
49826;SDS011;35715;51.570;6.036;2023-08-01T06:44:59;33.30;;;14.75;;
49826;SDS011;35715;51.570;6.036;2023-08-01T06:47:24;20.40;;;14.35;;
49826;SDS011;35715;51.570;6.036;2023-08-01T06:49:49;18.23;;;13.77;;
49826;SDS011;35715;51.570;6.036;2023-08-01T06:52:15;17.05;;;13.23;;
49826;SDS011;35715;51.570;6.036;2023-08-01T06:54:40;16.77;;;12.75;;
49826;SDS011;35715;51.570;6.036;2023-08-01T06:57:06;33.15;;;14.02;;
49826;SDS011;35715;51.570;6.036;2023-08-01T06:59:32;23.48;;;13.50;;
49826;SDS011;35715;51.570;6.036;2023-08-01T07:01:57;18.92;;;14.40;;
49826;SDS011;35715;51.570;6.036;2023-08-01T07:04:23;20.45;;;13.45;;
49826;SDS011;35715;51.570;6.036;2023-08-01T07:06:49;15.98;;;12.38;;
49826;SDS011;35715;51.570;6.036;2023-08-01T07:09:14;22.95;;;13.77;;
49826;SDS011;35715;51.570;6.036;2023-08-01T07:11:40;21.38;;;13.50;;
49826;SDS011;35715;51.570;6.036;2023-08-01T07:14:05;16.02;;;12.85;;
49826;SDS011;35715;51.570;6.036;2023-08-01T07:16:31;20.52;;;12.23;;
49826;SDS011;35715;51.570;6.036;2023-08-01T07:18:57;12.18;;;10.65;;
49826;SDS011;35715;51.570;6.036;2023-08-01T07:21:25;11.90;;;9.77;;
49826;SDS011;35715;51.570;6.036;2023-08-01T07:23:50;16.92;;;9.75;;
49826;SDS011;35715;51.570;6.036;2023-08-01T07:26:15;17.85;;;10.00;;
49826;SDS011;35715;51.570;6.036;2023-08-01T07:28:41;12.05;;;9.48;;
49826;SDS011;35715;51.570;6.036;2023-08-01T07:31:06;13.05;;;8.65;;
49826;SDS011;35715;51.570;6.036;2023-08-01T07:33:33;10.35;;;9.07;;
49826;SDS011;35715;51.570;6.036;2023-08-01T07:35:59;10.45;;;9.25;;
49826;SDS011;35715;51.570;6.036;2023-08-01T07:38:24;10.68;;;7.57;;
49826;SDS011;35715;51.570;6.036;2023-08-01T07:40:52;9.63;;;7.45;;
49826;SDS011;35715;51.570;6.036;2023-08-01T07:43:17;9.52;;;8.13;;
49826;SDS011;35715;51.570;6.036;2023-08-01T07:45:44;9.40;;;7.93;;
49826;SDS011;35715;51.570;6.036;2023-08-01T07:48:09;13.85;;;8.68;;
49826;SDS011;35715;51.570;6.036;2023-08-01T07:50:35;12.82;;;8.90;;
49826;SDS011;35715;51.570;6.036;2023-08-01T07:53:00;12.20;;;8.55;;
49826;SDS011;35715;51.570;6.036;2023-08-01T07:55:26;10.00;;;7.57;;
49826;SDS011;35715;51.570;6.036;2023-08-01T07:57:51;14.68;;;7.90;;
49826;SDS011;35715;51.570;6.036;2023-08-01T08:00:16;10.05;;;6.75;;
49826;SDS011;35715;51.570;6.036;2023-08-01T08:02:42;15.57;;;9.02;;
49826;SDS011;35715;51.570;6.036;2023-08-01T08:05:08;9.32;;;6.05;;
49826;SDS011;35715;51.570;6.036;2023-08-01T08:07:34;11.48;;;6.28;;
49826;SDS011;35715;51.570;6.036;2023-08-01T08:09:59;9.25;;;6.43;;
49826;SDS011;35715;51.570;6.036;2023-08-01T08:12:25;11.90;;;5.78;;
49826;SDS011;35715;51.570;6.036;2023-08-01T08:14:50;10.50;;;6.13;;
49826;SDS011;35715;51.570;6.036;2023-08-01T08:17:15;8.02;;;4.97;;
49826;SDS011;35715;51.570;6.036;2023-08-01T08:19:41;8.70;;;5.22;;
49826;SDS011;35715;51.570;6.036;2023-08-01T08:22:06;6.78;;;5.90;;
49826;SDS011;35715;51.570;6.036;2023-08-01T08:24:32;17.38;;;5.55;;
49826;SDS011;35715;51.570;6.036;2023-08-01T08:26:57;10.85;;;4.85;;
49826;SDS011;35715;51.570;6.036;2023-08-01T08:29:23;8.50;;;5.45;;
49826;SDS011;35715;51.570;6.036;2023-08-01T08:31:48;11.50;;;5.90;;
49826;SDS011;35715;51.570;6.036;2023-08-01T08:34:14;10.07;;;4.22;;
49826;SDS011;35715;51.570;6.036;2023-08-01T08:36:39;8.13;;;4.50;;
49826;SDS011;35715;51.570;6.036;2023-08-01T08:39:04;9.23;;;4.72;;
49826;SDS011;35715;51.570;6.036;2023-08-01T08:41:38;9.65;;;4.50;;
49826;SDS011;35715;51.570;6.036;2023-08-01T08:44:07;11.93;;;6.05;;
49826;SDS011;35715;51.570;6.036;2023-08-01T08:46:42;13.30;;;5.05;;
49826;SDS011;35715;51.570;6.036;2023-08-01T08:49:08;6.85;;;4.32;;
49826;SDS011;35715;51.570;6.036;2023-08-01T08:51:34;4.63;;;4.03;;
49826;SDS011;35715;51.570;6.036;2023-08-01T08:54:01;9.57;;;4.03;;
49826;SDS011;35715;51.570;6.036;2023-08-01T08:56:27;10.98;;;4.78;;
49826;SDS011;35715;51.570;6.036;2023-08-01T08:58:53;7.05;;;4.10;;
49826;SDS011;35715;51.570;6.036;2023-08-01T09:01:19;6.55;;;4.22;;
49826;SDS011;35715;51.570;6.036;2023-08-01T09:03:44;6.07;;;3.67;;
49826;SDS011;35715;51.570;6.036;2023-08-01T09:08:54;7.18;;;3.85;;
49826;SDS011;35715;51.570;6.036;2023-08-01T09:11:25;7.47;;;3.28;;
49826;SDS011;35715;51.570;6.036;2023-08-01T09:13:50;5.85;;;3.53;;
49826;SDS011;35715;51.570;6.036;2023-08-01T09:16:16;10.07;;;3.45;;
49826;SDS011;35715;51.570;6.036;2023-08-01T09:18:51;5.45;;;3.20;;
49826;SDS011;35715;51.570;6.036;2023-08-01T09:21:18;4.65;;;3.17;;
49826;SDS011;35715;51.570;6.036;2023-08-01T09:23:44;10.73;;;4.45;;
49826;SDS011;35715;51.570;6.036;2023-08-01T09:26:13;7.00;;;4.10;;
49826;SDS011;35715;51.570;6.036;2023-08-01T09:28:39;6.50;;;3.58;;
49826;SDS011;35715;51.570;6.036;2023-08-01T09:31:04;5.25;;;3.53;;
49826;SDS011;35715;51.570;6.036;2023-08-01T09:33:39;8.70;;;3.50;;
49826;SDS011;35715;51.570;6.036;2023-08-01T09:36:06;7.70;;;3.75;;
49826;SDS011;35715;51.570;6.036;2023-08-01T09:38:36;7.68;;;4.20;;
49826;SDS011;35715;51.570;6.036;2023-08-01T09:41:03;4.05;;;3.10;;
49826;SDS011;35715;51.570;6.036;2023-08-01T09:43:35;5.32;;;3.30;;
49826;SDS011;35715;51.570;6.036;2023-08-01T09:46:06;6.95;;;3.83;;
49826;SDS011;35715;51.570;6.036;2023-08-01T09:48:32;4.03;;;2.42;;
49826;SDS011;35715;51.570;6.036;2023-08-01T09:51:30;2.35;;;1.60;;
49826;SDS011;35715;51.570;6.036;2023-08-01T09:53:50;1.88;;;1.60;;
49826;SDS011;35715;51.570;6.036;2023-08-01T09:56:21;3.22;;;1.77;;
49826;SDS011;35715;51.570;6.036;2023-08-01T09:58:50;3.15;;;1.85;;
49826;SDS011;35715;51.570;6.036;2023-08-01T10:01:18;4.93;;;2.85;;
49826;SDS011;35715;51.570;6.036;2023-08-01T10:03:47;4.45;;;2.67;;
49826;SDS011;35715;51.570;6.036;2023-08-01T10:06:16;7.97;;;2.90;;
49826;SDS011;35715;51.570;6.036;2023-08-01T10:08:44;8.43;;;3.40;;
49826;SDS011;35715;51.570;6.036;2023-08-01T10:11:10;10.63;;;3.50;;
49826;SDS011;35715;51.570;6.036;2023-08-01T10:13:37;5.47;;;3.13;;
49826;SDS011;35715;51.570;6.036;2023-08-01T10:16:03;6.78;;;3.88;;
49826;SDS011;35715;51.570;6.036;2023-08-01T10:18:30;5.32;;;2.95;;
49826;SDS011;35715;51.570;6.036;2023-08-01T10:20:57;6.13;;;3.67;;
49826;SDS011;35715;51.570;6.036;2023-08-01T10:23:23;4.13;;;3.05;;
49826;SDS011;35715;51.570;6.036;2023-08-01T10:25:49;8.82;;;3.20;;
49826;SDS011;35715;51.570;6.036;2023-08-01T10:28:15;5.40;;;2.85;;
49826;SDS011;35715;51.570;6.036;2023-08-01T10:30:41;6.20;;;2.85;;
49826;SDS011;35715;51.570;6.036;2023-08-01T10:33:09;7.43;;;2.85;;
49826;SDS011;35715;51.570;6.036;2023-08-01T10:35:38;5.70;;;2.78;;
49826;SDS011;35715;51.570;6.036;2023-08-01T10:40:37;6.35;;;2.53;;
49826;SDS011;35715;51.570;6.036;2023-08-01T10:43:03;10.18;;;2.15;;
49826;SDS011;35715;51.570;6.036;2023-08-01T10:45:28;7.00;;;2.60;;
49826;SDS011;35715;51.570;6.036;2023-08-01T10:47:54;5.05;;;2.17;;
49826;SDS011;35715;51.570;6.036;2023-08-01T10:50:34;3.92;;;2.00;;
49826;SDS011;35715;51.570;6.036;2023-08-01T10:53:01;8.32;;;3.30;;
49826;SDS011;35715;51.570;6.036;2023-08-01T10:55:38;5.68;;;3.25;;
49826;SDS011;35715;51.570;6.036;2023-08-01T10:58:04;5.85;;;2.80;;
49826;SDS011;35715;51.570;6.036;2023-08-01T11:00:29;5.93;;;3.22;;
49826;SDS011;35715;51.570;6.036;2023-08-01T11:02:55;5.70;;;2.35;;
49826;SDS011;35715;51.570;6.036;2023-08-01T11:05:20;9.02;;;2.83;;
49826;SDS011;35715;51.570;6.036;2023-08-01T11:07:55;11.27;;;2.85;;
49826;SDS011;35715;51.570;6.036;2023-08-01T11:10:23;7.50;;;2.45;;
49826;SDS011;35715;51.570;6.036;2023-08-01T11:12:50;12.40;;;3.60;;
49826;SDS011;35715;51.570;6.036;2023-08-01T11:15:15;8.75;;;3.13;;
49826;SDS011;35715;51.570;6.036;2023-08-01T11:17:46;6.53;;;2.97;;
49826;SDS011;35715;51.570;6.036;2023-08-01T11:20:13;6.93;;;2.63;;
49826;SDS011;35715;51.570;6.036;2023-08-01T11:22:49;5.30;;;2.40;;
49826;SDS011;35715;51.570;6.036;2023-08-01T11:28:19;14.18;;;3.13;;
49826;SDS011;35715;51.570;6.036;2023-08-01T11:30:44;5.00;;;1.98;;
49826;SDS011;35715;51.570;6.036;2023-08-01T11:33:20;4.38;;;2.40;;
49826;SDS011;35715;51.570;6.036;2023-08-01T11:35:51;7.22;;;2.95;;
49826;SDS011;35715;51.570;6.036;2023-08-01T11:38:17;4.30;;;2.20;;
49826;SDS011;35715;51.570;6.036;2023-08-01T11:40:43;7.32;;;2.15;;
49826;SDS011;35715;51.570;6.036;2023-08-01T11:43:09;4.22;;;2.35;;
49826;SDS011;35715;51.570;6.036;2023-08-01T11:45:34;4.00;;;1.98;;
49826;SDS011;35715;51.570;6.036;2023-08-01T11:47:59;7.13;;;2.47;;
49826;SDS011;35715;51.570;6.036;2023-08-01T11:50:25;8.55;;;2.42;;
49826;SDS011;35715;51.570;6.036;2023-08-01T11:52:51;5.88;;;2.97;;
49826;SDS011;35715;51.570;6.036;2023-08-01T11:55:24;10.00;;;3.38;;
49826;SDS011;35715;51.570;6.036;2023-08-01T11:57:52;5.45;;;2.35;;
49826;SDS011;35715;51.570;6.036;2023-08-01T12:00:24;6.15;;;2.80;;
49826;SDS011;35715;51.570;6.036;2023-08-01T12:03:02;5.53;;;2.53;;
49826;SDS011;35715;51.570;6.036;2023-08-01T12:05:29;8.85;;;2.80;;
49826;SDS011;35715;51.570;6.036;2023-08-01T12:07:54;7.70;;;2.65;;
49826;SDS011;35715;51.570;6.036;2023-08-01T12:10:20;13.07;;;3.05;;
49826;SDS011;35715;51.570;6.036;2023-08-01T12:12:45;6.60;;;2.65;;
49826;SDS011;35715;51.570;6.036;2023-08-01T12:15:18;7.65;;;2.78;;
49826;SDS011;35715;51.570;6.036;2023-08-01T12:17:43;3.60;;;1.58;;
49826;SDS011;35715;51.570;6.036;2023-08-01T12:20:08;5.32;;;2.47;;
49826;SDS011;35715;51.570;6.036;2023-08-01T12:22:34;8.13;;;2.63;;
49826;SDS011;35715;51.570;6.036;2023-08-01T12:24:59;5.30;;;2.33;;
49826;SDS011;35715;51.570;6.036;2023-08-01T12:27:25;5.35;;;2.75;;
49826;SDS011;35715;51.570;6.036;2023-08-01T12:29:50;5.57;;;3.28;;
49826;SDS011;35715;51.570;6.036;2023-08-01T12:32:15;9.77;;;2.65;;
49826;SDS011;35715;51.570;6.036;2023-08-01T12:34:41;5.57;;;2.58;;
49826;SDS011;35715;51.570;6.036;2023-08-01T12:37:06;5.30;;;2.63;;
49826;SDS011;35715;51.570;6.036;2023-08-01T12:39:32;12.55;;;2.42;;
49826;SDS011;35715;51.570;6.036;2023-08-01T12:41:57;4.90;;;2.50;;
49826;SDS011;35715;51.570;6.036;2023-08-01T12:44:22;3.63;;;1.63;;
49826;SDS011;35715;51.570;6.036;2023-08-01T12:46:48;6.90;;;1.98;;
49826;SDS011;35715;51.570;6.036;2023-08-01T12:49:13;3.95;;;2.05;;
49826;SDS011;35715;51.570;6.036;2023-08-01T12:51:39;9.23;;;2.28;;
49826;SDS011;35715;51.570;6.036;2023-08-01T12:54:04;5.15;;;2.50;;
49826;SDS011;35715;51.570;6.036;2023-08-01T12:56:31;6.05;;;2.22;;
49826;SDS011;35715;51.570;6.036;2023-08-01T12:58:57;4.13;;;1.63;;
49826;SDS011;35715;51.570;6.036;2023-08-01T13:01:22;2.97;;;1.70;;
49826;SDS011;35715;51.570;6.036;2023-08-01T13:03:47;3.67;;;1.98;;
49826;SDS011;35715;51.570;6.036;2023-08-01T13:06:13;3.35;;;1.65;;
49826;SDS011;35715;51.570;6.036;2023-08-01T13:08:38;7.75;;;2.35;;
49826;SDS011;35715;51.570;6.036;2023-08-01T13:11:11;5.65;;;2.05;;
49826;SDS011;35715;51.570;6.036;2023-08-01T13:13:37;6.20;;;2.22;;
49826;SDS011;35715;51.570;6.036;2023-08-01T13:16:03;8.13;;;2.20;;
49826;SDS011;35715;51.570;6.036;2023-08-01T13:18:29;7.07;;;2.50;;
49826;SDS011;35715;51.570;6.036;2023-08-01T13:20:56;9.35;;;3.03;;
49826;SDS011;35715;51.570;6.036;2023-08-01T13:23:22;6.78;;;1.65;;
49826;SDS011;35715;51.570;6.036;2023-08-01T13:25:48;6.72;;;1.88;;
49826;SDS011;35715;51.570;6.036;2023-08-01T13:28:14;4.03;;;2.05;;
49826;SDS011;35715;51.570;6.036;2023-08-01T13:30:39;7.78;;;1.98;;
49826;SDS011;35715;51.570;6.036;2023-08-01T13:33:05;9.02;;;3.95;;
49826;SDS011;35715;51.570;6.036;2023-08-01T13:35:30;7.10;;;2.35;;
49826;SDS011;35715;51.570;6.036;2023-08-01T13:37:55;4.88;;;1.70;;
49826;SDS011;35715;51.570;6.036;2023-08-01T13:40:21;5.50;;;2.30;;
49826;SDS011;35715;51.570;6.036;2023-08-01T13:42:46;3.60;;;1.83;;
49826;SDS011;35715;51.570;6.036;2023-08-01T13:45:11;4.85;;;2.03;;
49826;SDS011;35715;51.570;6.036;2023-08-01T13:47:37;3.33;;;1.73;;
49826;SDS011;35715;51.570;6.036;2023-08-01T13:50:02;1.67;;;1.45;;
49826;SDS011;35715;51.570;6.036;2023-08-01T13:52:28;7.15;;;2.38;;
49826;SDS011;35715;51.570;6.036;2023-08-01T13:54:53;4.30;;;1.42;;
49826;SDS011;35715;51.570;6.036;2023-08-01T13:57:19;10.07;;;3.03;;
49826;SDS011;35715;51.570;6.036;2023-08-01T13:59:44;5.28;;;1.83;;
49826;SDS011;35715;51.570;6.036;2023-08-01T14:02:09;7.57;;;2.28;;
49826;SDS011;35715;51.570;6.036;2023-08-01T14:04:35;2.45;;;1.35;;
49826;SDS011;35715;51.570;6.036;2023-08-01T14:07:00;5.18;;;2.35;;
49826;SDS011;35715;51.570;6.036;2023-08-01T14:09:27;8.48;;;1.75;;
49826;SDS011;35715;51.570;6.036;2023-08-01T14:11:54;3.85;;;1.45;;
49826;SDS011;35715;51.570;6.036;2023-08-01T14:14:19;10.05;;;2.45;;
49826;SDS011;35715;51.570;6.036;2023-08-01T14:16:44;5.45;;;2.75;;
49826;SDS011;35715;51.570;6.036;2023-08-01T14:19:10;6.70;;;2.28;;
49826;SDS011;35715;51.570;6.036;2023-08-01T14:21:35;4.90;;;1.90;;
49826;SDS011;35715;51.570;6.036;2023-08-01T14:24:03;7.35;;;1.58;;
49826;SDS011;35715;51.570;6.036;2023-08-01T14:26:29;5.75;;;2.53;;
49826;SDS011;35715;51.570;6.036;2023-08-01T14:28:54;12.55;;;2.00;;
49826;SDS011;35715;51.570;6.036;2023-08-01T14:31:19;3.25;;;2.00;;
49826;SDS011;35715;51.570;6.036;2023-08-01T14:33:45;3.13;;;1.27;;
49826;SDS011;35715;51.570;6.036;2023-08-01T14:36:10;3.05;;;1.73;;
49826;SDS011;35715;51.570;6.036;2023-08-01T14:38:37;3.28;;;1.33;;